createdAt,value
2022-11-17T05:03:56.258Z,97813.78
2022-11-17T05:07:58.879Z,97805.28
2022-11-17T05:12:24.434Z,97800.34
2022-11-17T05:16:44.810Z,97809.94
2022-11-17T05:20:48.796Z,97797.66
2022-11-17T05:24:51.574Z,97786.56
2022-11-17T05:28:56.635Z,97794.78
2022-11-17T05:32:59.231Z,97788.22
2022-11-17T05:37:03.189Z,97793.44
2022-11-17T05:41:06.293Z,97787.97
2022-11-17T05:45:10.267Z,97792.72
2022-11-17T05:49:12.909Z,97776.38
2022-11-17T05:53:16.914Z,97774.00
2022-11-17T05:57:28.083Z,97774.19
2022-11-17T06:01:32.893Z,97773.13
2022-11-17T06:05:35.600Z,97767.75
2022-11-17T06:09:43.154Z,97763.78
2022-11-17T06:13:45.839Z,97763.09
2022-11-17T06:17:53.622Z,97769.06
2022-11-17T06:22:11.773Z,97762.88
2022-11-17T06:26:17.368Z,97762.97
2022-11-17T06:30:20.155Z,97759.47
2022-11-17T06:34:22.830Z,97760.03
2022-11-17T06:38:25.442Z,97759.59
2022-11-17T06:42:46.947Z,97767.16
2022-11-17T06:46:49.559Z,97770.44
2022-11-17T06:50:52.359Z,97771.72
2022-11-17T06:54:55.012Z,97749.78
2022-11-17T06:58:59.248Z,97750.69
2022-11-17T07:03:01.966Z,97759.31
2022-11-17T07:07:04.955Z,97756.78
2022-11-17T07:11:10.469Z,97759.94
2022-11-17T07:15:14.584Z,97744.59
2022-11-17T07:19:17.213Z,97742.84
2022-11-17T07:23:19.941Z,97732.81
2022-11-17T07:27:22.560Z,97726.63
2022-11-17T07:31:26.504Z,97713.88
2022-11-17T07:35:29.555Z,97714.28
2022-11-17T07:39:32.269Z,97708.84
2022-11-17T07:43:36.265Z,97694.34
2022-11-17T07:47:40.215Z,97688.94
2022-11-17T07:51:42.833Z,97678.22
2022-11-17T07:55:45.671Z,97662.34
2022-11-17T07:59:48.377Z,97653.06
2022-11-17T08:03:52.590Z,97656.41
2022-11-17T08:07:56.550Z,97667.34
2022-11-17T08:11:59.462Z,97670.69
2022-11-17T08:16:02.243Z,97664.28
2022-11-17T08:20:07.198Z,97658.72
2022-11-17T08:24:10.002Z,97659.78
2022-11-17T08:28:12.597Z,97668.25
2022-11-17T08:32:15.205Z,97648.88
2022-11-17T08:36:19.166Z,97656.28
2022-11-17T08:40:22.202Z,97655.22
2022-11-17T08:44:25.006Z,97657.16
2022-11-17T08:48:28.125Z,97662.63
2022-11-17T08:52:32.231Z,97664.69
2022-11-17T08:56:34.863Z,97673.41
2022-11-17T09:00:37.521Z,97669.31
2022-11-17T09:04:40.290Z,97668.75
2022-11-17T09:08:45.943Z,97667.13
2022-11-17T09:12:59.128Z,97663.34
2022-11-17T09:17:01.741Z,97671.81
2022-11-17T09:21:06.303Z,97669.78
2022-11-17T09:25:13.550Z,97670.38
2022-11-17T09:29:16.439Z,97663.84
2022-11-17T09:33:19.351Z,97671.59
2022-11-17T09:37:22.533Z,97669.19
2022-11-17T09:41:29.052Z,97672.66
2022-11-17T09:45:38.192Z,97666.97
2022-11-17T09:49:56.995Z,97642.09
2022-11-17T09:54:08.813Z,97663.44
2022-11-17T09:58:19.952Z,97659.09
2022-11-17T10:02:22.689Z,97655.50
2022-11-17T10:06:27.316Z,97652.22
2022-11-17T10:10:37.338Z,97657.03
2022-11-17T10:14:42.076Z,97666.50
2022-11-17T10:18:44.691Z,97662.84
2022-11-17T10:22:48.385Z,97659.94
2022-11-17T10:26:51.217Z,97663.84
2022-11-17T10:30:57.561Z,97665.88
2022-11-17T10:35:14.845Z,97658.44
2022-11-17T10:39:34.291Z,97650.19
2022-11-17T10:43:39.179Z,97645.56
2022-11-17T10:47:43.170Z,97643.63
2022-11-17T10:51:45.847Z,97651.22
2022-11-17T10:55:56.542Z,97636.66
2022-11-17T10:59:59.507Z,97639.31
2022-11-17T11:04:04.628Z,97634.50
2022-11-17T11:08:20.002Z,97635.41
2022-11-17T11:12:33.694Z,97635.84
2022-11-17T11:16:36.176Z,97633.63
2022-11-17T11:20:50.661Z,97628.28
2022-11-17T11:25:02.917Z,97618.81
2022-11-17T11:29:14.390Z,97628.38
2022-11-17T11:33:32.350Z,97635.03
2022-11-17T11:37:44.492Z,97636.91
2022-11-17T11:42:06.518Z,97632.94
2022-11-17T11:46:17.076Z,97626.88
2022-11-17T11:50:23.150Z,97631.31
2022-11-17T11:54:40.120Z,97635.50
2022-11-17T11:58:47.951Z,97639.53
2022-11-17T12:02:56.674Z,97636.66
2022-11-17T12:07:06.225Z,97638.03
2022-11-17T12:11:27.721Z,97638.88
2022-11-17T12:15:35.479Z,97635.50
2022-11-17T12:19:57.260Z,97637.38
2022-11-17T12:24:18.992Z,97655.34
2022-11-17T12:28:32.282Z,97647.22
2022-11-17T12:32:55.335Z,97637.25
2022-11-17T12:37:22.978Z,97642.78
2022-11-17T12:42:02.842Z,97648.44
2022-11-17T12:46:53.915Z,97642.88
2022-11-17T12:51:04.909Z,97650.44
2022-11-17T12:55:18.277Z,97650.88
2022-11-17T12:59:43.069Z,97651.22
2022-11-17T13:03:55.676Z,97660.25
2022-11-17T13:08:21.405Z,97655.78
2022-11-17T13:12:25.935Z,97659.78
2022-11-17T13:16:28.642Z,97667.38
2022-11-17T13:20:33.916Z,97665.88
2022-11-17T13:24:39.190Z,97665.25
2022-11-17T13:28:41.783Z,97653.09
2022-11-17T13:32:44.603Z,97657.88
2022-11-17T13:36:56.059Z,97660.25
2022-11-17T13:40:59.858Z,97664.81
2022-11-17T13:45:06.290Z,97667.69
2022-11-17T13:49:34.049Z,97667.09
2022-11-17T13:53:42.361Z,97669.53
2022-11-17T13:57:55.249Z,97669.97
2022-11-17T14:02:26.106Z,97668.56
2022-11-17T14:06:55.873Z,97678.06
2022-11-17T14:11:14.300Z,97679.19
2022-11-17T14:15:24.354Z,97679.66
2022-11-17T14:19:32.776Z,97678.66
2022-11-17T14:23:36.162Z,97683.19
2022-11-17T14:27:41.541Z,97687.91
2022-11-17T14:31:44.441Z,97692.41
2022-11-17T14:35:53.861Z,97697.72
2022-11-17T14:39:56.474Z,97695.28
2022-11-17T14:44:00.437Z,97703.38
2022-11-17T14:48:04.040Z,97696.19
2022-11-17T14:52:06.835Z,97701.34
2022-11-17T14:56:10.675Z,97703.50
2022-11-17T15:00:20.542Z,97703.81
2022-11-17T15:08:46.231Z,97704.47
2022-11-17T15:12:48.852Z,97715.69
2022-11-17T15:16:52.854Z,97721.19
2022-11-17T15:21:01.196Z,97714.28
2022-11-17T15:25:04.000Z,97719.41
2022-11-17T15:29:06.682Z,97719.19
2022-11-17T15:33:10.652Z,97719.88
2022-11-17T15:37:13.258Z,97725.34
2022-11-17T15:41:16.748Z,97730.63
2022-11-17T15:45:19.236Z,97724.56
2022-11-17T15:49:23.214Z,97726.09
2022-11-17T15:53:30.121Z,97726.94
2022-11-17T15:57:32.925Z,97725.63
2022-11-17T16:01:36.547Z,97737.47
2022-11-17T16:05:40.561Z,97735.75
2022-11-17T16:09:47.526Z,97736.34
2022-11-17T16:13:53.171Z,97738.09
2022-11-17T16:17:55.806Z,97741.59
2022-11-17T16:21:59.875Z,97734.50
2022-11-17T16:26:13.396Z,97739.00
2022-11-17T16:30:19.333Z,97743.75
2022-11-17T16:34:22.504Z,97745.44
2022-11-17T16:38:26.471Z,97756.34
2022-11-17T16:42:29.066Z,97763.78
2022-11-17T16:46:32.517Z,97768.25
2022-11-17T16:50:36.703Z,97776.78
2022-11-17T16:54:41.671Z,97768.13
2022-11-17T16:58:44.281Z,97776.84
2022-11-17T17:02:49.953Z,97779.59
2022-11-17T17:06:52.673Z,97790.06
2022-11-17T17:10:56.747Z,97781.50
2022-11-17T17:14:59.334Z,97781.50
2022-11-17T17:19:04.254Z,97786.38
2022-11-17T17:23:07.368Z,97792.03
2022-11-17T17:27:11.313Z,97786.06
2022-11-17T17:31:20.754Z,97786.56
2022-11-17T17:35:24.511Z,97776.53
2022-11-17T17:39:27.265Z,97782.56
2022-11-17T17:43:31.421Z,97784.94
2022-11-17T17:47:34.141Z,97777.19
2022-11-17T17:51:39.907Z,97774.16
2022-11-17T17:55:43.613Z,97772.19
2022-11-17T17:59:47.589Z,97787.97
2022-11-17T18:03:51.803Z,97786.06
2022-11-17T18:07:54.414Z,97781.38
2022-11-17T18:11:57.069Z,97795.31
2022-11-17T18:16:04.361Z,97819.25
2022-11-17T18:20:08.294Z,97820.56
2022-11-17T18:24:12.174Z,97810.50
2022-11-17T18:28:14.787Z,97810.06
2022-11-17T18:32:18.741Z,97815.19
2022-11-17T18:36:22.140Z,97817.41
2022-11-17T18:40:24.816Z,97818.78
2022-11-17T18:44:27.394Z,97819.84
2022-11-17T18:48:33.148Z,97816.56
2022-11-17T18:52:35.781Z,97823.09
2022-11-17T18:56:39.065Z,97818.84
2022-11-17T19:00:41.732Z,97816.13
2022-11-17T19:04:45.798Z,97816.84
2022-11-17T19:08:49.050Z,97818.06
2022-11-17T19:12:51.652Z,97823.59
2022-11-17T19:16:55.116Z,97826.19
2022-11-17T19:21:04.591Z,97827.78
2022-11-17T19:25:07.967Z,97822.91
2022-11-17T19:29:17.050Z,97821.59
2022-11-17T19:33:20.265Z,97822.88
2022-11-17T19:37:24.246Z,97819.94
2022-11-17T19:41:28.761Z,97819.44
2022-11-17T19:45:31.432Z,97826.47
2022-11-17T19:49:34.110Z,97822.28
2022-11-17T19:53:39.315Z,97825.06
2022-11-17T19:57:41.949Z,97827.06
2022-11-17T20:01:45.082Z,97828.63
2022-11-17T20:05:48.067Z,97835.53
2022-11-17T20:09:52.010Z,97831.31
2022-11-17T20:13:55.147Z,97840.13
2022-11-17T20:17:57.782Z,97841.22
2022-11-17T20:22:00.448Z,97842.53
2022-11-17T20:26:05.480Z,97844.91
2022-11-17T20:30:14.806Z,97845.94
2022-11-17T20:34:18.010Z,97850.72
2022-11-17T20:38:20.643Z,97849.47
2022-11-17T20:42:32.291Z,97861.13
2022-11-17T20:47:07.795Z,97865.22
2022-11-17T20:51:12.626Z,97861.09
2022-11-17T20:55:15.299Z,97870.78
2022-11-17T20:59:20.399Z,97867.06
2022-11-17T21:03:24.197Z,97876.38
2022-11-17T21:07:26.830Z,97881.13
2022-11-17T21:11:46.986Z,97890.72
2022-11-17T21:16:08.072Z,97890.81
2022-11-17T21:20:12.177Z,97897.94
2022-11-17T21:24:14.799Z,97904.41
2022-11-17T21:28:17.578Z,97909.69
2022-11-17T21:32:21.557Z,97916.00
2022-11-17T21:36:25.583Z,97928.88
2022-11-17T21:40:28.192Z,97920.09
2022-11-17T21:44:30.846Z,97916.81
2022-11-17T21:48:35.054Z,97923.13
2022-11-17T21:52:37.751Z,97915.25
2022-11-17T21:56:40.705Z,97922.38
